sensor_id;sensor_type;location;lat;lon;timestamp;temperature;humidity
11944;DHT22;6031;50.220;10.122;2023-01-25T00:00:39;1.00;1.00
11944;DHT22;6031;50.220;10.122;2023-01-25T00:03:05;1.00;1.00
11944;DHT22;6031;50.220;10.122;2023-01-25T00:05:30;0.90;1.00
11944;DHT22;6031;50.220;10.122;2023-01-25T00:07:56;0.90;1.00
11944;DHT22;6031;50.220;10.122;2023-01-25T00:10:21;0.90;1.00
11944;DHT22;6031;50.220;10.122;2023-01-25T00:12:47;0.90;1.00
11944;DHT22;6031;50.220;10.122;2023-01-25T00:15:12;1.00;1.00
11944;DHT22;6031;50.220;10.122;2023-01-25T00:17:38;1.00;1.00
11944;DHT22;6031;50.220;10.122;2023-01-25T00:20:04;0.90;1.00
11944;DHT22;6031;50.220;10.122;2023-01-25T00:22:29;1.00;1.00
11944;DHT22;6031;50.220;10.122;2023-01-25T00:24:55;0.90;1.00
11944;DHT22;6031;50.220;10.122;2023-01-25T00:27:20;0.90;1.00
11944;DHT22;6031;50.220;10.122;2023-01-25T00:29:46;0.90;1.00
11944;DHT22;6031;50.220;10.122;2023-01-25T00:34:57;0.90;1.00
11944;DHT22;6031;50.220;10.122;2023-01-25T00:37:29;0.90;1.00
11944;DHT22;6031;50.220;10.122;2023-01-25T00:39:55;0.90;1.00
11944;DHT22;6031;50.220;10.122;2023-01-25T00:42:20;0.80;1.00
11944;DHT22;6031;50.220;10.122;2023-01-25T00:44:46;0.80;1.00
11944;DHT22;6031;50.220;10.122;2023-01-25T00:47:13;0.80;1.00
11944;DHT22;6031;50.220;10.122;2023-01-25T00:49:40;0.80;1.00
11944;DHT22;6031;50.220;10.122;2023-01-25T00:52:06;0.80;1.00
11944;DHT22;6031;50.220;10.122;2023-01-25T00:54:32;0.80;1.00
11944;DHT22;6031;50.220;10.122;2023-01-25T00:56:58;0.70;1.00
11944;DHT22;6031;50.220;10.122;2023-01-25T00:59:23;0.70;1.00
11944;DHT22;6031;50.220;10.122;2023-01-25T01:01:49;0.70;1.00
11944;DHT22;6031;50.220;10.122;2023-01-25T01:04:15;0.70;1.00
11944;DHT22;6031;50.220;10.122;2023-01-25T01:06:41;0.70;1.00
11944;DHT22;6031;50.220;10.122;2023-01-25T01:09:13;0.70;1.00
11944;DHT22;6031;50.220;10.122;2023-01-25T01:11:39;0.70;1.00
11944;DHT22;6031;50.220;10.122;2023-01-25T01:14:04;0.70;1.00
11944;DHT22;6031;50.220;10.122;2023-01-25T01:16:30;0.70;1.00
11944;DHT22;6031;50.220;10.122;2023-01-25T01:18:55;0.60;1.00
11944;DHT22;6031;50.220;10.122;2023-01-25T01:21:21;0.60;1.00
11944;DHT22;6031;50.220;10.122;2023-01-25T01:23:47;0.60;1.00
11944;DHT22;6031;50.220;10.122;2023-01-25T01:26:17;0.60;1.00
11944;DHT22;6031;50.220;10.122;2023-01-25T01:28:46;0.60;1.00
11944;DHT22;6031;50.220;10.122;2023-01-25T01:31:17;0.50;1.00
11944;DHT22;6031;50.220;10.122;2023-01-25T01:33:42;0.60;1.00
11944;DHT22;6031;50.220;10.122;2023-01-25T01:36:13;0.60;1.00
11944;DHT22;6031;50.220;10.122;2023-01-25T01:38:39;0.60;1.00
11944;DHT22;6031;50.220;10.122;2023-01-25T01:41:05;0.60;1.00
11944;DHT22;6031;50.220;10.122;2023-01-25T01:43:33;0.60;1.00
11944;DHT22;6031;50.220;10.122;2023-01-25T01:51:18;0.60;1.00
11944;DHT22;6031;50.220;10.122;2023-01-25T01:53:57;0.50;1.00
11944;DHT22;6031;50.220;10.122;2023-01-25T01:56:40;0.50;1.00
11944;DHT22;6031;50.220;10.122;2023-01-25T01:59:08;0.50;1.00
11944;DHT22;6031;50.220;10.122;2023-01-25T02:01:34;0.60;1.00
11944;DHT22;6031;50.220;10.122;2023-01-25T02:04:00;0.50;1.00
11944;DHT22;6031;50.220;10.122;2023-01-25T02:06:38;0.50;1.00
11944;DHT22;6031;50.220;10.122;2023-01-25T02:09:05;0.50;1.00
11944;DHT22;6031;50.220;10.122;2023-01-25T02:11:31;0.50;1.00
11944;DHT22;6031;50.220;10.122;2023-01-25T02:13:58;0.50;1.00
11944;DHT22;6031;50.220;10.122;2023-01-25T02:16:26;0.50;1.00
11944;DHT22;6031;50.220;10.122;2023-01-25T02:18:53;0.50;1.00
11944;DHT22;6031;50.220;10.122;2023-01-25T02:21:22;0.50;1.00
11944;DHT22;6031;50.220;10.122;2023-01-25T02:26:24;0.50;1.00
11944;DHT22;6031;50.220;10.122;2023-01-25T02:28:54;0.60;1.00
11944;DHT22;6031;50.220;10.122;2023-01-25T02:31:20;0.60;1.00
11944;DHT22;6031;50.220;10.122;2023-01-25T02:33:46;0.60;1.00
11944;DHT22;6031;50.220;10.122;2023-01-25T02:36:22;0.50;1.00
11944;DHT22;6031;50.220;10.122;2023-01-25T02:39:01;0.50;1.00
11944;DHT22;6031;50.220;10.122;2023-01-25T02:41:41;0.60;1.00
11944;DHT22;6031;50.220;10.122;2023-01-25T02:44:14;0.50;1.00
11944;DHT22;6031;50.220;10.122;2023-01-25T02:46:42;0.60;1.00
11944;DHT22;6031;50.220;10.122;2023-01-25T02:49:09;0.50;1.00
11944;DHT22;6031;50.220;10.122;2023-01-25T02:51:38;0.40;1.00
11944;DHT22;6031;50.220;10.122;2023-01-25T02:54:07;0.40;1.00
11944;DHT22;6031;50.220;10.122;2023-01-25T02:56:33;0.40;1.00
11944;DHT22;6031;50.220;10.122;2023-01-25T02:58:58;0.40;1.00
11944;DHT22;6031;50.220;10.122;2023-01-25T03:01:24;0.50;1.00
11944;DHT22;6031;50.220;10.122;2023-01-25T03:03:50;0.40;1.00
11944;DHT22;6031;50.220;10.122;2023-01-25T03:06:15;0.40;1.00
11944;DHT22;6031;50.220;10.122;2023-01-25T03:08:41;0.40;1.00
11944;DHT22;6031;50.220;10.122;2023-01-25T03:11:07;0.40;1.00
11944;DHT22;6031;50.220;10.122;2023-01-25T03:13:33;0.50;1.00
11944;DHT22;6031;50.220;10.122;2023-01-25T03:16:01;0.50;1.00
11944;DHT22;6031;50.220;10.122;2023-01-25T03:18:27;0.40;1.00
11944;DHT22;6031;50.220;10.122;2023-01-25T03:20:53;0.40;1.00
11944;DHT22;6031;50.220;10.122;2023-01-25T03:23:19;0.40;1.00
11944;DHT22;6031;50.220;10.122;2023-01-25T03:25:44;0.50;1.00
11944;DHT22;6031;50.220;10.122;2023-01-25T03:28:10;0.50;1.00
11944;DHT22;6031;50.220;10.122;2023-01-25T03:30:35;0.40;1.00
11944;DHT22;6031;50.220;10.122;2023-01-25T03:33:01;0.40;10.90
11944;DHT22;6031;50.220;10.122;2023-01-25T03:35:26;0.30;67.90
11944;DHT22;6031;50.220;10.122;2023-01-25T03:37:52;0.30;90.70
11944;DHT22;6031;50.220;10.122;2023-01-25T03:40:17;0.40;81.60
11944;DHT22;6031;50.220;10.122;2023-01-25T03:42:43;0.40;51.50
11944;DHT22;6031;50.220;10.122;2023-01-25T03:45:09;0.40;53.50
11944;DHT22;6031;50.220;10.122;2023-01-25T03:47:39;0.40;40.70
11944;DHT22;6031;50.220;10.122;2023-01-25T03:50:04;0.40;37.40
11944;DHT22;6031;50.220;10.122;2023-01-25T03:52:30;0.40;41.30
11944;DHT22;6031;50.220;10.122;2023-01-25T03:55:03;0.50;17.00
11944;DHT22;6031;50.220;10.122;2023-01-25T03:57:28;0.50;1.00
11944;DHT22;6031;50.220;10.122;2023-01-25T03:59:54;0.40;1.00
11944;DHT22;6031;50.220;10.122;2023-01-25T04:02:19;0.40;1.00
11944;DHT22;6031;50.220;10.122;2023-01-25T04:04:45;0.40;1.00
11944;DHT22;6031;50.220;10.122;2023-01-25T04:07:10;0.30;16.70
11944;DHT22;6031;50.220;10.122;2023-01-25T04:09:36;0.30;45.20
11944;DHT22;6031;50.220;10.122;2023-01-25T04:12:01;0.30;67.90
11944;DHT22;6031;50.220;10.122;2023-01-25T04:14:27;0.30;57.00
11944;DHT22;6031;50.220;10.122;2023-01-25T04:16:52;0.30;5.80
11944;DHT22;6031;50.220;10.122;2023-01-25T04:19:18;0.30;7.60
11944;DHT22;6031;50.220;10.122;2023-01-25T04:21:43;0.30;1.00
11944;DHT22;6031;50.220;10.122;2023-01-25T04:24:09;0.40;1.00
11944;DHT22;6031;50.220;10.122;2023-01-25T04:26:34;0.30;1.00
11944;DHT22;6031;50.220;10.122;2023-01-25T04:29:00;0.30;1.00
11944;DHT22;6031;50.220;10.122;2023-01-25T04:31:25;0.20;1.00
11944;DHT22;6031;50.220;10.122;2023-01-25T04:33:51;0.20;1.00
11944;DHT22;6031;50.220;10.122;2023-01-25T04:36:16;0.20;1.00
11944;DHT22;6031;50.220;10.122;2023-01-25T04:38:42;0.20;1.00
11944;DHT22;6031;50.220;10.122;2023-01-25T04:41:08;0.20;12.10
11944;DHT22;6031;50.220;10.122;2023-01-25T04:43:34;0.20;9.20
11944;DHT22;6031;50.220;10.122;2023-01-25T04:46:02;0.20;1.00
11944;DHT22;6031;50.220;10.122;2023-01-25T04:48:28;0.20;2.40
11944;DHT22;6031;50.220;10.122;2023-01-25T04:50:54;0.10;1.00
11944;DHT22;6031;50.220;10.122;2023-01-25T04:53:19;0.10;1.00
11944;DHT22;6031;50.220;10.122;2023-01-25T04:55:46;0.10;1.00
11944;DHT22;6031;50.220;10.122;2023-01-25T04:58:12;0.10;1.00
11944;DHT22;6031;50.220;10.122;2023-01-25T05:00:37;0.20;7.80
11944;DHT22;6031;50.220;10.122;2023-01-25T05:03:03;0.20;1.00
11944;DHT22;6031;50.220;10.122;2023-01-25T05:05:29;0.20;1.00
11944;DHT22;6031;50.220;10.122;2023-01-25T05:07:54;0.30;1.00
11944;DHT22;6031;50.220;10.122;2023-01-25T05:10:20;0.20;1.00
11944;DHT22;6031;50.220;10.122;2023-01-25T05:12:46;0.10;1.00
11944;DHT22;6031;50.220;10.122;2023-01-25T05:15:11;0.20;1.00
11944;DHT22;6031;50.220;10.122;2023-01-25T05:17:37;0.30;1.00
11944;DHT22;6031;50.220;10.122;2023-01-25T05:20:03;0.30;1.00
11944;DHT22;6031;50.220;10.122;2023-01-25T05:22:28;0.30;1.00
11944;DHT22;6031;50.220;10.122;2023-01-25T05:24:54;0.30;1.00
11944;DHT22;6031;50.220;10.122;2023-01-25T05:27:20;0.30;1.00
11944;DHT22;6031;50.220;10.122;2023-01-25T05:29:46;0.40;1.00
11944;DHT22;6031;50.220;10.122;2023-01-25T05:32:17;0.40;1.00
11944;DHT22;6031;50.220;10.122;2023-01-25T05:34:43;0.30;1.00
11944;DHT22;6031;50.220;10.122;2023-01-25T05:37:11;0.30;1.00
11944;DHT22;6031;50.220;10.122;2023-01-25T05:39:37;0.20;1.00
11944;DHT22;6031;50.220;10.122;2023-01-25T05:42:03;0.20;1.00
11944;DHT22;6031;50.220;10.122;2023-01-25T05:44:28;0.20;1.00
11944;DHT22;6031;50.220;10.122;2023-01-25T05:46:54;0.20;1.00
11944;DHT22;6031;50.220;10.122;2023-01-25T05:49:20;0.30;1.00
11944;DHT22;6031;50.220;10.122;2023-01-25T05:51:46;0.50;1.00
11944;DHT22;6031;50.220;10.122;2023-01-25T05:54:14;0.30;1.00
11944;DHT22;6031;50.220;10.122;2023-01-25T05:56:40;0.20;1.00
11944;DHT22;6031;50.220;10.122;2023-01-25T05:59:06;0.20;1.00
11944;DHT22;6031;50.220;10.122;2023-01-25T06:01:31;0.20;1.00
11944;DHT22;6031;50.220;10.122;2023-01-25T06:03:57;0.10;1.00
11944;DHT22;6031;50.220;10.122;2023-01-25T06:06:22;0.20;1.00
11944;DHT22;6031;50.220;10.122;2023-01-25T06:08:48;0.10;1.00
11944;DHT22;6031;50.220;10.122;2023-01-25T06:11:17;0.20;1.00
11944;DHT22;6031;50.220;10.122;2023-01-25T06:13:43;0.20;1.00
11944;DHT22;6031;50.220;10.122;2023-01-25T06:16:09;0.20;1.00
11944;DHT22;6031;50.220;10.122;2023-01-25T06:18:34;0.20;1.00
11944;DHT22;6031;50.220;10.122;2023-01-25T06:21:00;0.20;1.00
11944;DHT22;6031;50.220;10.122;2023-01-25T06:23:26;0.10;1.00
11944;DHT22;6031;50.220;10.122;2023-01-25T06:25:56;0.20;1.00
11944;DHT22;6031;50.220;10.122;2023-01-25T06:28:21;0.10;1.00
11944;DHT22;6031;50.220;10.122;2023-01-25T06:30:47;0.10;1.00
11944;DHT22;6031;50.220;10.122;2023-01-25T06:33:12;0.10;1.00
11944;DHT22;6031;50.220;10.122;2023-01-25T06:35:38;0.10;1.00
11944;DHT22;6031;50.220;10.122;2023-01-25T06:38:05;0.10;1.00
11944;DHT22;6031;50.220;10.122;2023-01-25T06:40:31;0.20;1.00
11944;DHT22;6031;50.220;10.122;2023-01-25T06:43:07;0.10;1.00
11944;DHT22;6031;50.220;10.122;2023-01-25T06:45:36;0.10;1.00
11944;DHT22;6031;50.220;10.122;2023-01-25T06:48:01;0.00;1.00
11944;DHT22;6031;50.220;10.122;2023-01-25T06:50:27;0.10;1.00
11944;DHT22;6031;50.220;10.122;2023-01-25T06:52:53;0.10;1.00
11944;DHT22;6031;50.220;10.122;2023-01-25T06:55:19;0.00;1.00
11944;DHT22;6031;50.220;10.122;2023-01-25T06:57:45;0.00;1.00
11944;DHT22;6031;50.220;10.122;2023-01-25T07:00:11;0.00;1.00
11944;DHT22;6031;50.220;10.122;2023-01-25T07:02:37;0.00;1.00
11944;DHT22;6031;50.220;10.122;2023-01-25T07:05:03;0.10;1.00
11944;DHT22;6031;50.220;10.122;2023-01-25T07:07:28;0.00;1.00
11944;DHT22;6031;50.220;10.122;2023-01-25T07:09:54;0.00;1.00
11944;DHT22;6031;50.220;10.122;2023-01-25T07:12:19;0.00;1.00
11944;DHT22;6031;50.220;10.122;2023-01-25T07:14:45;0.10;1.00
11944;DHT22;6031;50.220;10.122;2023-01-25T07:17:13;0.00;4.10
11944;DHT22;6031;50.220;10.122;2023-01-25T07:19:39;0.10;63.20
11944;DHT22;6031;50.220;10.122;2023-01-25T07:22:04;0.20;60.30
11944;DHT22;6031;50.220;10.122;2023-01-25T07:24:30;0.10;41.30
11944;DHT22;6031;50.220;10.122;2023-01-25T07:26:55;0.10;30.80
11944;DHT22;6031;50.220;10.122;2023-01-25T07:29:21;0.10;2.00
11944;DHT22;6031;50.220;10.122;2023-01-25T07:31:47;0.10;1.00
11944;DHT22;6031;50.220;10.122;2023-01-25T07:34:12;0.10;19.20
11944;DHT22;6031;50.220;10.122;2023-01-25T07:36:39;0.10;3.80
11944;DHT22;6031;50.220;10.122;2023-01-25T07:39:05;0.10;1.00
11944;DHT22;6031;50.220;10.122;2023-01-25T07:41:33;0.10;6.30
11944;DHT22;6031;50.220;10.122;2023-01-25T07:43:59;0.10;20.00
11944;DHT22;6031;50.220;10.122;2023-01-25T07:46:25;0.10;20.60
11944;DHT22;6031;50.220;10.122;2023-01-25T07:48:51;0.10;29.30
11944;DHT22;6031;50.220;10.122;2023-01-25T07:51:20;0.20;66.10
11944;DHT22;6031;50.220;10.122;2023-01-25T07:53:53;0.20;56.30
11944;DHT22;6031;50.220;10.122;2023-01-25T07:56:21;0.20;28.90
11944;DHT22;6031;50.220;10.122;2023-01-25T07:58:46;0.20;1.00
11944;DHT22;6031;50.220;10.122;2023-01-25T08:01:15;0.20;1.00
11944;DHT22;6031;50.220;10.122;2023-01-25T08:03:41;0.20;1.00
11944;DHT22;6031;50.220;10.122;2023-01-25T08:06:08;0.20;1.00
11944;DHT22;6031;50.220;10.122;2023-01-25T08:08:37;0.20;17.60
11944;DHT22;6031;50.220;10.122;2023-01-25T08:11:19;0.40;1.00
11944;DHT22;6031;50.220;10.122;2023-01-25T08:13:45;0.40;1.00
11944;DHT22;6031;50.220;10.122;2023-01-25T08:16:14;0.30;1.00
11944;DHT22;6031;50.220;10.122;2023-01-25T08:18:40;0.30;1.00
11944;DHT22;6031;50.220;10.122;2023-01-25T08:21:05;0.40;1.00
11944;DHT22;6031;50.220;10.122;2023-01-25T08:23:31;0.40;1.00
11944;DHT22;6031;50.220;10.122;2023-01-25T08:26:07;0.40;1.00
11944;DHT22;6031;50.220;10.122;2023-01-25T08:28:33;0.40;1.00
11944;DHT22;6031;50.220;10.122;2023-01-25T08:31:07;0.40;1.00
11944;DHT22;6031;50.220;10.122;2023-01-25T08:33:33;0.40;1.00
11944;DHT22;6031;50.220;10.122;2023-01-25T08:35:58;0.30;1.00
11944;DHT22;6031;50.220;10.122;2023-01-25T08:38:24;0.30;1.00
11944;DHT22;6031;50.220;10.122;2023-01-25T08:40:49;0.40;1.00
11944;DHT22;6031;50.220;10.122;2023-01-25T08:43:15;0.40;1.00
11944;DHT22;6031;50.220;10.122;2023-01-25T08:45:41;0.30;1.00
11944;DHT22;6031;50.220;10.122;2023-01-25T08:48:06;0.40;1.00
11944;DHT22;6031;50.220;10.122;2023-01-25T08:50:31;0.40;1.00
11944;DHT22;6031;50.220;10.122;2023-01-25T08:52:57;0.40;1.00
11944;DHT22;6031;50.220;10.122;2023-01-25T08:55:22;0.40;1.00
11944;DHT22;6031;50.220;10.122;2023-01-25T08:57:48;0.30;1.00
11944;DHT22;6031;50.220;10.122;2023-01-25T09:00:14;0.30;1.00
11944;DHT22;6031;50.220;10.122;2023-01-25T09:02:40;0.30;1.00
11944;DHT22;6031;50.220;10.122;2023-01-25T09:05:06;0.40;1.00
11944;DHT22;6031;50.220;10.122;2023-01-25T09:07:31;0.50;1.00
11944;DHT22;6031;50.220;10.122;2023-01-25T09:10:02;0.50;1.00
11944;DHT22;6031;50.220;10.122;2023-01-25T09:12:28;0.50;1.00
11944;DHT22;6031;50.220;10.122;2023-01-25T09:14:53;0.50;1.00
11944;DHT22;6031;50.220;10.122;2023-01-25T09:17:19;0.50;1.00
11944;DHT22;6031;50.220;10.122;2023-01-25T09:19:46;0.40;1.00
11944;DHT22;6031;50.220;10.122;2023-01-25T09:22:11;0.40;1.00
11944;DHT22;6031;50.220;10.122;2023-01-25T09:24:37;0.40;1.00
11944;DHT22;6031;50.220;10.122;2023-01-25T09:27:02;0.50;1.00
11944;DHT22;6031;50.220;10.122;2023-01-25T09:29:28;0.50;1.00
11944;DHT22;6031;50.220;10.122;2023-01-25T09:31:53;0.60;1.00
11944;DHT22;6031;50.220;10.122;2023-01-25T09:34:19;0.60;1.00
11944;DHT22;6031;50.220;10.122;2023-01-25T09:36:46;0.70;1.00
11944;DHT22;6031;50.220;10.122;2023-01-25T09:39:12;0.70;1.00
11944;DHT22;6031;50.220;10.122;2023-01-25T09:44:51;0.50;99.90
11944;DHT22;6031;50.220;10.122;2023-01-25T09:47:37;0.60;99.90
11944;DHT22;6031;50.220;10.122;2023-01-25T09:50:24;0.60;99.90
11944;DHT22;6031;50.220;10.122;2023-01-25T09:53:18;0.50;99.90
11944;DHT22;6031;50.220;10.122;2023-01-25T09:55:52;0.60;99.90
11944;DHT22;6031;50.220;10.122;2023-01-25T09:58:23;0.60;99.90
11944;DHT22;6031;50.220;10.122;2023-01-25T10:00:53;0.70;99.90
11944;DHT22;6031;50.220;10.122;2023-01-25T10:03:39;0.70;72.30
11944;DHT22;6031;50.220;10.122;2023-01-25T10:06:09;0.80;1.00
11944;DHT22;6031;50.220;10.122;2023-01-25T10:08:50;0.80;1.00
11944;DHT22;6031;50.220;10.122;2023-01-25T10:11:27;0.80;1.00
11944;DHT22;6031;50.220;10.122;2023-01-25T10:13:55;0.70;1.00
11944;DHT22;6031;50.220;10.122;2023-01-25T10:19:14;0.70;1.00
11944;DHT22;6031;50.220;10.122;2023-01-25T10:21:44;0.80;1.00
11944;DHT22;6031;50.220;10.122;2023-01-25T10:25:21;0.90;22.30
11944;DHT22;6031;50.220;10.122;2023-01-25T10:27:43;0.80;1.00
11944;DHT22;6031;50.220;10.122;2023-01-25T10:30:29;0.80;1.00
11944;DHT22;6031;50.220;10.122;2023-01-25T10:32:59;0.90;1.00
11944;DHT22;6031;50.220;10.122;2023-01-25T10:35:30;0.90;1.00
11944;DHT22;6031;50.220;10.122;2023-01-25T10:38:06;0.70;1.00
11944;DHT22;6031;50.220;10.122;2023-01-25T10:40:42;0.60;1.00
11944;DHT22;6031;50.220;10.122;2023-01-25T10:43:17;0.40;99.90
11944;DHT22;6031;50.220;10.122;2023-01-25T10:45:44;0.50;1.00
11944;DHT22;6031;50.220;10.122;2023-01-25T10:48:17;0.60;1.00
11944;DHT22;6031;50.220;10.122;2023-01-25T10:50:46;0.60;1.00
11944;DHT22;6031;50.220;10.122;2023-01-25T10:53:30;0.50;1.00
11944;DHT22;6031;50.220;10.122;2023-01-25T10:58:40;0.60;1.00
11944;DHT22;6031;50.220;10.122;2023-01-25T11:01:33;0.70;1.00
11944;DHT22;6031;50.220;10.122;2023-01-25T11:04:00;0.70;1.00
11944;DHT22;6031;50.220;10.122;2023-01-25T11:06:35;0.70;1.00
11944;DHT22;6031;50.220;10.122;2023-01-25T11:12:04;0.80;99.90
11944;DHT22;6031;50.220;10.122;2023-01-25T11:14:32;0.80;99.90
11944;DHT22;6031;50.220;10.122;2023-01-25T11:17:00;0.80;72.90
11944;DHT22;6031;50.220;10.122;2023-01-25T11:19:36;0.80;80.30
11944;DHT22;6031;50.220;10.122;2023-01-25T11:22:05;0.90;99.90
11944;DHT22;6031;50.220;10.122;2023-01-25T11:24:43;0.90;99.90
11944;DHT22;6031;50.220;10.122;2023-01-25T11:27:27;1.00;99.90
11944;DHT22;6031;50.220;10.122;2023-01-25T11:30:07;1.00;28.20
11944;DHT22;6031;50.220;10.122;2023-01-25T11:32:34;1.00;32.10
11944;DHT22;6031;50.220;10.122;2023-01-25T11:35:00;1.10;1.00
11944;DHT22;6031;50.220;10.122;2023-01-25T11:40:26;1.00;1.00
11944;DHT22;6031;50.220;10.122;2023-01-25T11:48:53;0.90;1.00
11944;DHT22;6031;50.220;10.122;2023-01-25T11:54:39;0.90;1.00
11944;DHT22;6031;50.220;10.122;2023-01-25T12:03:22;0.80;99.90
11944;DHT22;6031;50.220;10.122;2023-01-25T12:06:14;0.90;1.00
11944;DHT22;6031;50.220;10.122;2023-01-25T12:14:12;1.00;99.90
11944;DHT22;6031;50.220;10.122;2023-01-25T12:20:12;1.00;1.00
11944;DHT22;6031;50.220;10.122;2023-01-25T12:31:23;1.20;1.00
11944;DHT22;6031;50.220;10.122;2023-01-25T12:34:01;1.20;1.00
11944;DHT22;6031;50.220;10.122;2023-01-25T12:36:32;1.30;1.00
11944;DHT22;6031;50.220;10.122;2023-01-25T12:39:03;1.40;1.00
11944;DHT22;6031;50.220;10.122;2023-01-25T12:44:23;1.30;1.00
11944;DHT22;6031;50.220;10.122;2023-01-25T12:49:54;1.30;1.00
11944;DHT22;6031;50.220;10.122;2023-01-25T12:52:55;1.30;1.00
11944;DHT22;6031;50.220;10.122;2023-01-25T12:55:18;1.20;1.00
11944;DHT22;6031;50.220;10.122;2023-01-25T12:57:55;1.10;99.90
11944;DHT22;6031;50.220;10.122;2023-01-25T13:03:48;1.10;99.90
11944;DHT22;6031;50.220;10.122;2023-01-25T13:09:00;1.30;1.00
11944;DHT22;6031;50.220;10.122;2023-01-25T13:11:39;1.20;1.00
11944;DHT22;6031;50.220;10.122;2023-01-25T13:16:54;1.10;99.90
11944;DHT22;6031;50.220;10.122;2023-01-25T13:19:40;1.20;99.90
11944;DHT22;6031;50.220;10.122;2023-01-25T13:22:11;1.20;1.00
11944;DHT22;6031;50.220;10.122;2023-01-25T13:27:28;1.20;99.90
11944;DHT22;6031;50.220;10.122;2023-01-25T13:30:02;1.30;99.90
11944;DHT22;6031;50.220;10.122;2023-01-25T13:37:32;1.20;99.90
11944;DHT22;6031;50.220;10.122;2023-01-25T13:40:00;1.20;1.00
11944;DHT22;6031;50.220;10.122;2023-01-25T13:42:34;1.20;99.90
11944;DHT22;6031;50.220;10.122;2023-01-25T13:45:18;1.20;99.90
11944;DHT22;6031;50.220;10.122;2023-01-25T13:48:03;1.20;99.90
11944;DHT22;6031;50.220;10.122;2023-01-25T13:50:33;1.10;99.90
11944;DHT22;6031;50.220;10.122;2023-01-25T13:55:41;1.00;99.90
11944;DHT22;6031;50.220;10.122;2023-01-25T13:58:28;0.80;1.00
11944;DHT22;6031;50.220;10.122;2023-01-25T14:00:58;0.70;1.00
11944;DHT22;6031;50.220;10.122;2023-01-25T14:03:29;0.70;1.00
11944;DHT22;6031;50.220;10.122;2023-01-25T14:05:57;0.70;1.00
11944;DHT22;6031;50.220;10.122;2023-01-25T14:08:24;0.80;1.00
11944;DHT22;6031;50.220;10.122;2023-01-25T14:10:50;0.80;96.90
11944;DHT22;6031;50.220;10.122;2023-01-25T14:13:17;0.80;99.90
11944;DHT22;6031;50.220;10.122;2023-01-25T14:15:55;0.80;99.90
11944;DHT22;6031;50.220;10.122;2023-01-25T14:18:29;0.70;99.90
11944;DHT22;6031;50.220;10.122;2023-01-25T14:21:16;0.70;1.00
11944;DHT22;6031;50.220;10.122;2023-01-25T14:23:42;0.70;1.00
11944;DHT22;6031;50.220;10.122;2023-01-25T14:26:27;0.80;1.00
11944;DHT22;6031;50.220;10.122;2023-01-25T14:28:55;0.70;1.00
11944;DHT22;6031;50.220;10.122;2023-01-25T14:31:41;0.70;99.90
11944;DHT22;6031;50.220;10.122;2023-01-25T14:34:17;0.70;1.00
11944;DHT22;6031;50.220;10.122;2023-01-25T14:36:42;0.70;60.30
11944;DHT22;6031;50.220;10.122;2023-01-25T14:39:28;0.70;99.90
11944;DHT22;6031;50.220;10.122;2023-01-25T14:41:55;0.70;1.00
11944;DHT22;6031;50.220;10.122;2023-01-25T14:44:20;0.70;1.00
11944;DHT22;6031;50.220;10.122;2023-01-25T14:46:46;0.80;1.00
11944;DHT22;6031;50.220;10.122;2023-01-25T14:54:17;0.60;20.80
11944;DHT22;6031;50.220;10.122;2023-01-25T14:56:46;0.40;1.00
11944;DHT22;6031;50.220;10.122;2023-01-25T14:59:33;0.50;1.00
11944;DHT22;6031;50.220;10.122;2023-01-25T15:04:55;0.50;99.90
11944;DHT22;6031;50.220;10.122;2023-01-25T15:10:24;0.50;99.90
11944;DHT22;6031;50.220;10.122;2023-01-25T15:15:36;0.50;99.90
11944;DHT22;6031;50.220;10.122;2023-01-25T15:18:52;0.40;96.10
11944;DHT22;6031;50.220;10.122;2023-01-25T15:21:18;0.40;99.90
11944;DHT22;6031;50.220;10.122;2023-01-25T15:23:48;0.40;99.90
11944;DHT22;6031;50.220;10.122;2023-01-25T15:26:27;0.50;99.90
11944;DHT22;6031;50.220;10.122;2023-01-25T15:28:55;0.40;1.00
11944;DHT22;6031;50.220;10.122;2023-01-25T15:31:27;0.30;1.00
11944;DHT22;6031;50.220;10.122;2023-01-25T15:33:54;0.30;1.00
11944;DHT22;6031;50.220;10.122;2023-01-25T15:36:20;0.30;1.00
11944;DHT22;6031;50.220;10.122;2023-01-25T15:38:46;0.30;1.00
11944;DHT22;6031;50.220;10.122;2023-01-25T15:41:12;0.30;59.20
11944;DHT22;6031;50.220;10.122;2023-01-25T15:43:38;0.40;1.00
11944;DHT22;6031;50.220;10.122;2023-01-25T15:46:05;0.40;1.00
11944;DHT22;6031;50.220;10.122;2023-01-25T15:48:40;0.40;1.00
11944;DHT22;6031;50.220;10.122;2023-01-25T15:51:06;0.40;1.00
11944;DHT22;6031;50.220;10.122;2023-01-25T15:53:32;0.40;1.00
11944;DHT22;6031;50.220;10.122;2023-01-25T15:56:00;0.30;1.00
11944;DHT22;6031;50.220;10.122;2023-01-25T15:58:36;0.30;1.00
11944;DHT22;6031;50.220;10.122;2023-01-25T16:01:03;0.40;1.00
11944;DHT22;6031;50.220;10.122;2023-01-25T16:03:29;0.40;1.00
11944;DHT22;6031;50.220;10.122;2023-01-25T16:06:06;0.40;1.00
11944;DHT22;6031;50.220;10.122;2023-01-25T16:08:38;0.30;1.00
11944;DHT22;6031;50.220;10.122;2023-01-25T16:11:04;0.30;99.90
11944;DHT22;6031;50.220;10.122;2023-01-25T16:13:29;0.30;99.90
11944;DHT22;6031;50.220;10.122;2023-01-25T16:15:55;0.30;99.90
11944;DHT22;6031;50.220;10.122;2023-01-25T16:18:21;0.30;99.90
11944;DHT22;6031;50.220;10.122;2023-01-25T16:20:47;0.20;99.90
11944;DHT22;6031;50.220;10.122;2023-01-25T16:23:12;0.30;99.90
11944;DHT22;6031;50.220;10.122;2023-01-25T16:25:39;0.30;1.00
11944;DHT22;6031;50.220;10.122;2023-01-25T16:28:14;0.30;1.00
11944;DHT22;6031;50.220;10.122;2023-01-25T16:30:40;0.20;1.00
11944;DHT22;6031;50.220;10.122;2023-01-25T16:33:06;0.20;1.00
11944;DHT22;6031;50.220;10.122;2023-01-25T16:35:31;0.20;1.00
11944;DHT22;6031;50.220;10.122;2023-01-25T16:37:57;0.30;1.00
11944;DHT22;6031;50.220;10.122;2023-01-25T16:40:28;0.30;1.00
11944;DHT22;6031;50.220;10.122;2023-01-25T16:42:56;0.30;99.90
11944;DHT22;6031;50.220;10.122;2023-01-25T16:45:22;0.30;99.90
11944;DHT22;6031;50.220;10.122;2023-01-25T16:47:49;0.40;99.90
11944;DHT22;6031;50.220;10.122;2023-01-25T16:50:17;0.40;99.90
11944;DHT22;6031;50.220;10.122;2023-01-25T16:52:43;0.40;99.90
11944;DHT22;6031;50.220;10.122;2023-01-25T16:55:11;0.40;99.90
11944;DHT22;6031;50.220;10.122;2023-01-25T16:57:41;0.30;99.90
11944;DHT22;6031;50.220;10.122;2023-01-25T17:00:12;0.30;99.90
11944;DHT22;6031;50.220;10.122;2023-01-25T17:02:42;0.30;99.90
11944;DHT22;6031;50.220;10.122;2023-01-25T17:05:09;0.20;1.00
11944;DHT22;6031;50.220;10.122;2023-01-25T17:07:35;0.20;1.00
11944;DHT22;6031;50.220;10.122;2023-01-25T17:10:01;0.10;1.00
11944;DHT22;6031;50.220;10.122;2023-01-25T17:12:28;0.10;1.00
11944;DHT22;6031;50.220;10.122;2023-01-25T17:14:53;0.10;1.00
11944;DHT22;6031;50.220;10.122;2023-01-25T17:17:19;0.20;1.00
11944;DHT22;6031;50.220;10.122;2023-01-25T17:19:45;0.20;1.00
11944;DHT22;6031;50.220;10.122;2023-01-25T17:22:10;0.20;1.00
11944;DHT22;6031;50.220;10.122;2023-01-25T17:24:36;0.20;1.00
11944;DHT22;6031;50.220;10.122;2023-01-25T17:27:03;0.30;1.00
11944;DHT22;6031;50.220;10.122;2023-01-25T17:29:29;0.30;1.00
11944;DHT22;6031;50.220;10.122;2023-01-25T17:31:55;0.30;1.00
11944;DHT22;6031;50.220;10.122;2023-01-25T17:34:21;0.20;1.00
11944;DHT22;6031;50.220;10.122;2023-01-25T17:36:48;0.20;1.00
11944;DHT22;6031;50.220;10.122;2023-01-25T17:39:15;0.20;1.00
11944;DHT22;6031;50.220;10.122;2023-01-25T17:41:42;0.20;1.00
11944;DHT22;6031;50.220;10.122;2023-01-25T17:44:08;0.20;1.00